createdAt,value
2018-11-20T00:01:54.668Z,67.40
2018-11-20T00:04:18.833Z,66.50
2018-11-20T00:06:37.107Z,66.00
2018-11-20T00:09:00.660Z,66.00
2018-11-20T00:11:36.358Z,67.00
2018-11-20T00:13:58.903Z,66.20
2018-11-20T00:16:40.848Z,65.80
2018-11-20T00:19:22.685Z,66.30
2018-11-20T00:21:44.963Z,66.60
2018-11-20T00:24:06.346Z,66.60
2018-11-20T00:26:35.714Z,65.80
2018-11-20T00:28:58.048Z,67.00
2018-11-20T00:31:31.189Z,67.60
2018-11-20T00:33:43.977Z,65.90
2018-11-20T00:36:19.547Z,65.80
2018-11-20T00:38:58.239Z,65.80
2018-11-20T00:41:19.082Z,65.00
2018-11-20T00:43:55.432Z,66.30
2018-11-20T00:46:17.836Z,66.50
2018-11-20T00:48:59.642Z,66.40
2018-11-20T00:51:28.423Z,67.30
2018-11-20T00:53:50.454Z,66.40
2018-11-20T00:57:01.266Z,64.40
2018-11-20T00:59:23.452Z,66.00
2018-11-20T01:01:41.098Z,65.40
2018-11-20T01:04:04.739Z,65.10
2018-11-20T01:06:26.690Z,65.10
2018-11-20T01:08:51.440Z,65.00
2018-11-20T01:11:33.085Z,66.60
2018-11-20T01:13:56.667Z,65.50
2018-11-20T01:16:35.370Z,65.60
2018-11-20T01:18:58.918Z,65.00
2018-11-20T01:21:41.219Z,66.00
2018-11-20T01:24:08.304Z,65.50
2018-11-20T01:26:21.678Z,65.00
2018-11-20T01:28:57.165Z,65.50
2018-11-20T01:31:21.552Z,65.40
2018-11-20T01:33:43.218Z,65.90
2018-11-20T01:36:05.621Z,64.40
2018-11-20T01:38:32.090Z,64.90
2018-11-20T01:41:07.529Z,65.90
2018-11-20T01:43:21.080Z,63.60
2018-11-20T01:45:44.750Z,65.00
2018-11-20T01:48:23.320Z,64.90
2018-11-20T01:50:46.917Z,63.40
2018-11-20T01:53:09.295Z,65.20
2018-11-20T01:55:39.174Z,64.10
2018-11-20T01:58:06.403Z,64.00
2018-11-20T02:00:18.283Z,64.50
2018-11-20T02:02:59.896Z,64.00
2018-11-20T02:05:22.161Z,63.80
2018-11-20T02:07:51.545Z,63.50
2018-11-20T02:10:13.633Z,64.10
2018-11-20T02:12:35.717Z,64.10
2018-11-20T02:15:11.578Z,63.20
2018-11-20T02:17:44.128Z,63.80
2018-11-20T02:20:06.352Z,63.20
2018-11-20T02:22:29.885Z,64.40
2018-11-20T02:25:08.589Z,63.60
2018-11-20T02:27:41.016Z,64.70
2018-11-20T02:30:07.224Z,63.70
2018-11-20T02:32:37.049Z,64.00
2018-11-20T02:34:48.822Z,63.20
2018-11-20T02:37:24.427Z,63.90
2018-11-20T02:39:46.966Z,64.30
2018-11-20T02:42:06.208Z,63.90
2018-11-20T02:44:33.367Z,62.60
2018-11-20T02:46:51.359Z,63.20
2018-11-20T02:49:15.250Z,64.00
2018-11-20T02:51:37.837Z,64.20
2018-11-20T02:54:00.062Z,63.40
2018-11-20T02:56:38.947Z,63.10
2018-11-20T02:59:01.155Z,64.30
2018-11-20T03:01:28.820Z,63.90
2018-11-20T03:04:04.414Z,63.00
2018-11-20T03:06:43.013Z,64.00
2018-11-20T03:08:58.029Z,64.50
2018-11-20T03:11:24.134Z,65.00
2018-11-20T03:14:02.672Z,63.70
2018-11-20T03:16:25.010Z,64.10
2018-11-20T03:18:57.440Z,63.90
2018-11-20T03:21:26.969Z,65.10
2018-11-20T03:23:50.592Z,65.60
2018-11-20T03:26:26.385Z,64.80
2018-11-20T03:28:52.643Z,64.80
2018-11-20T03:31:29.425Z,64.50
2018-11-20T03:33:52.916Z,64.10
2018-11-20T03:36:16.525Z,64.40
2018-11-20T03:38:42.959Z,65.20
2018-11-20T03:41:21.265Z,63.80
2018-11-20T03:43:50.495Z,65.40
2018-11-20T03:46:16.877Z,65.60
2018-11-20T03:48:53.898Z,64.50
2018-11-20T03:51:18.736Z,65.30
2018-11-20T03:53:50.102Z,65.30
2018-11-20T03:56:22.713Z,66.10
2018-11-20T03:58:44.797Z,65.80
2018-11-20T04:01:14.306Z,65.60
2018-11-20T04:03:40.669Z,65.60
2018-11-20T04:06:08.083Z,65.50
2018-11-20T04:08:30.190Z,65.10
2018-11-20T04:10:56.600Z,65.60
2018-11-20T04:13:19.053Z,66.60
2018-11-20T04:15:41.179Z,64.90
2018-11-20T04:18:20.233Z,65.90
2018-11-20T04:21:01.762Z,66.60
2018-11-20T04:23:20.812Z,66.10
2018-11-20T04:25:51.752Z,64.90
2018-11-20T04:28:19.749Z,65.40
2018-11-20T04:31:22.260Z,65.70
2018-11-20T04:34:12.839Z,66.20
2018-11-20T04:36:35.652Z,66.70
2018-11-20T04:39:02.048Z,66.50
2018-11-20T04:41:17.085Z,66.50
2018-11-20T04:43:39.276Z,66.80
2018-11-20T04:46:12.940Z,65.80
2018-11-20T04:48:36.524Z,66.20
2018-11-20T04:50:48.191Z,66.00
2018-11-20T04:53:01.402Z,67.00
2018-11-20T04:55:23.990Z,66.10
2018-11-20T04:57:46.094Z,66.20
2018-11-20T05:00:08.739Z,65.60
2018-11-20T05:02:33.499Z,65.60
2018-11-20T05:04:55.834Z,65.60
2018-11-20T05:07:17.957Z,65.40
2018-11-20T05:09:47.429Z,65.20
2018-11-20T05:12:25.862Z,66.80
2018-11-20T05:14:52.109Z,67.50
2018-11-20T05:17:09.887Z,66.80
2018-11-20T05:19:32.230Z,66.20
2018-11-20T05:22:04.525Z,66.70
2018-11-20T05:24:26.629Z,66.70
2018-11-20T05:27:02.216Z,67.30
2018-11-20T05:29:24.439Z,67.40
2018-11-20T05:31:48.021Z,67.00
2018-11-20T05:34:10.301Z,66.30
2018-11-20T05:36:32.430Z,66.60
2018-11-20T05:38:56.557Z,66.70
2018-11-20T05:41:12.152Z,67.70
2018-11-20T05:43:32.970Z,66.10
2018-11-20T05:46:07.145Z,67.00
2018-11-20T05:48:31.188Z,67.30
2018-11-20T05:50:53.728Z,66.70
2018-11-20T05:53:29.594Z,66.70
2018-11-20T05:55:56.208Z,65.90
2018-11-20T05:58:20.482Z,67.00
2018-11-20T06:00:52.885Z,67.70
2018-11-20T06:03:25.279Z,67.00
2018-11-20T06:05:47.878Z,67.10
2018-11-20T06:08:10.024Z,67.40
2018-11-20T06:10:36.221Z,67.60
2018-11-20T06:12:58.526Z,67.40
2018-11-20T06:15:24.841Z,66.70
2018-11-20T06:17:57.263Z,66.50
2018-11-20T06:20:26.642Z,67.40
2018-11-20T06:22:48.883Z,66.40
2018-11-20T06:25:03.408Z,66.50
2018-11-20T06:27:32.602Z,66.80
2018-11-20T06:30:05.391Z,67.80
2018-11-20T06:32:39.412Z,68.30
2018-11-20T06:35:03.091Z,66.50
2018-11-20T06:37:44.374Z,67.20
2018-11-20T06:40:18.303Z,67.70
2018-11-20T06:42:40.650Z,67.60
2018-11-20T06:45:07.923Z,67.50
2018-11-20T06:47:39.094Z,67.30
2018-11-20T06:50:11.716Z,68.20
2018-11-20T06:52:36.901Z,68.00
2018-11-20T06:55:09.414Z,68.20
2018-11-20T06:57:31.725Z,67.60
2018-11-20T07:00:01.439Z,68.60
2018-11-20T07:03:02.090Z,67.70
2018-11-20T07:05:20.448Z,68.20
2018-11-20T07:07:42.246Z,68.50
2018-11-20T07:10:03.543Z,68.80
2018-11-20T07:12:24.818Z,69.80
2018-11-20T07:15:04.705Z,69.30
2018-11-20T07:17:45.338Z,69.60
2018-11-20T07:20:06.570Z,67.60
2018-11-20T07:22:23.885Z,68.00
2018-11-20T07:25:01.747Z,67.70
2018-11-20T07:27:39.379Z,68.60
2018-11-20T07:30:08.274Z,68.00
2018-11-20T07:32:46.950Z,68.10
2018-11-20T07:35:13.827Z,68.40
2018-11-20T07:37:34.829Z,68.30
2018-11-20T07:40:03.367Z,69.80
2018-11-20T07:42:24.937Z,70.50
2018-11-20T07:44:43.649Z,68.90
2018-11-20T07:47:21.632Z,68.60
2018-11-20T07:49:54.126Z,69.50
2018-11-20T07:52:54.456Z,69.20
2018-11-20T07:55:26.450Z,68.70
2018-11-20T07:57:54.959Z,69.00
2018-11-20T08:00:10.353Z,69.30
2018-11-20T08:02:39.012Z,69.80
2018-11-20T08:05:02.592Z,70.50
2018-11-20T08:07:23.849Z,69.90
2018-11-20T08:09:46.716Z,69.00
2018-11-20T08:12:18.282Z,69.60
2018-11-20T08:14:37.558Z,69.50
2018-11-20T08:16:49.843Z,70.00
2018-11-20T08:19:15.423Z,69.50
2018-11-20T08:21:37.100Z,69.10
2018-11-20T08:23:55.139Z,68.30
2018-11-20T08:26:05.020Z,68.70
2018-11-20T08:28:27.572Z,69.40
2018-11-20T08:30:56.254Z,69.70
2018-11-20T08:33:37.071Z,69.10
2018-11-20T08:36:08.134Z,68.70
2018-11-20T08:38:26.251Z,68.70
2018-11-20T08:40:48.060Z,68.60
2018-11-20T08:43:21.227Z,67.90
2018-11-20T08:45:42.562Z,68.90
2018-11-20T08:48:23.412Z,68.30
2018-11-20T08:50:58.323Z,68.40
2018-11-20T08:53:15.464Z,68.10
2018-11-20T08:55:43.765Z,68.10
2018-11-20T08:58:21.838Z,67.80
2018-11-20T09:00:43.409Z,66.80
2018-11-20T09:03:08.796Z,66.70
2018-11-20T09:05:30.114Z,67.80
2018-11-20T09:07:58.536Z,67.70
2018-11-20T09:10:19.939Z,68.20
2018-11-20T09:12:47.740Z,68.20
2018-11-20T09:15:08.975Z,67.30
2018-11-20T09:17:31.721Z,67.80
2018-11-20T09:19:53.073Z,67.20
2018-11-20T09:22:18.352Z,67.10
2018-11-20T09:24:40.040Z,66.00
2018-11-20T09:27:08.423Z,67.90
2018-11-20T09:29:26.682Z,66.40
2018-11-20T09:32:01.718Z,66.60
2018-11-20T09:34:22.883Z,65.90
2018-11-20T09:36:41.617Z,65.60
2018-11-20T09:39:02.109Z,67.30
2018-11-20T09:41:16.208Z,66.50
2018-11-20T09:43:52.349Z,67.10
2018-11-20T09:46:16.009Z,66.30
2018-11-20T09:48:40.679Z,66.70
2018-11-20T09:51:18.422Z,65.70
2018-11-20T09:53:44.142Z,65.90
2018-11-20T09:56:05.353Z,66.50
2018-11-20T09:58:26.572Z,66.70
2018-11-20T10:00:48.089Z,66.30
2018-11-20T10:03:09.597Z,66.80
2018-11-20T10:05:30.942Z,64.10
2018-11-20T10:07:53.731Z,64.60
2018-11-20T10:10:16.515Z,65.40
2018-11-20T10:12:37.713Z,66.10
2018-11-20T10:15:03.113Z,66.20
2018-11-20T10:17:34.837Z,64.20
2018-11-20T10:19:57.560Z,65.00
2018-11-20T10:22:22.223Z,64.20
2018-11-20T10:24:43.660Z,65.80
2018-11-20T10:26:58.595Z,64.50
2018-11-20T10:29:38.360Z,64.20
2018-11-20T10:32:02.434Z,64.40
2018-11-20T10:34:40.093Z,64.10
2018-11-20T10:37:05.753Z,63.70
2018-11-20T10:39:28.517Z,65.00
2018-11-20T10:41:53.850Z,64.40
2018-11-20T10:44:12.493Z,63.70
2018-11-20T10:46:33.898Z,64.00
2018-11-20T10:49:05.797Z,62.40
2018-11-20T10:51:37.407Z,64.30
2018-11-20T10:53:54.498Z,63.90
2018-11-20T10:56:19.776Z,63.70
2018-11-20T10:58:32.184Z,63.70
2018-11-20T11:00:53.213Z,63.50
2018-11-20T11:03:28.065Z,62.20
2018-11-20T11:05:32.689Z,63.90
2018-11-20T11:07:54.890Z,63.80
2018-11-20T11:10:20.098Z,64.30
2018-11-20T11:13:00.922Z,64.70
2018-11-20T11:15:22.280Z,65.30
2018-11-20T11:17:43.424Z,64.90
2018-11-20T11:20:06.164Z,64.70
2018-11-20T11:22:37.778Z,63.50
2018-11-20T11:24:59.960Z,63.80
2018-11-20T11:27:25.339Z,63.00
2018-11-20T11:29:58.001Z,63.60
2018-11-20T11:32:13.081Z,64.00
2018-11-20T11:34:34.358Z,64.00
2018-11-20T11:36:55.711Z,62.60
2018-11-20T11:39:09.396Z,61.30
2018-11-20T11:41:30.807Z,63.30
2018-11-20T11:43:51.454Z,63.00
2018-11-20T11:46:12.667Z,63.80
2018-11-20T11:48:33.736Z,63.60
2018-11-20T11:50:54.902Z,62.40
2018-11-20T11:53:17.276Z,63.60
2018-11-20T11:55:58.036Z,63.80
2018-11-20T11:58:19.405Z,63.70
2018-11-20T12:00:48.209Z,62.50
2018-11-20T12:03:18.692Z,62.70
2018-11-20T12:05:39.980Z,61.60
2018-11-20T12:08:01.810Z,61.10
2018-11-20T12:10:24.552Z,61.40
2018-11-20T12:12:47.223Z,62.10
2018-11-20T12:15:08.492Z,63.40
2018-11-20T12:17:29.813Z,61.80
2018-11-20T12:19:51.126Z,61.90
2018-11-20T12:22:28.734Z,61.10
2018-11-20T12:24:56.815Z,63.50
2018-11-20T12:27:38.191Z,63.30
2018-11-20T12:30:07.976Z,62.00
2018-11-20T12:32:29.471Z,62.10
2018-11-20T12:34:51.073Z,63.00
2018-11-20T12:37:12.304Z,61.20
2018-11-20T12:39:30.252Z,62.50
2018-11-20T12:41:51.646Z,62.30
2018-11-20T12:44:18.119Z,61.10
2018-11-20T12:46:54.741Z,62.70
2018-11-20T12:49:19.047Z,62.20
2018-11-20T12:51:50.045Z,62.00
2018-11-20T12:54:29.901Z,61.80
2018-11-20T12:56:40.765Z,61.70
2018-11-20T12:59:06.133Z,61.40
2018-11-20T13:01:35.126Z,63.50
2018-11-20T13:04:10.929Z,62.80
2018-11-20T13:06:36.750Z,61.60
2018-11-20T13:08:53.792Z,63.60
2018-11-20T13:11:15.226Z,62.50
2018-11-20T13:13:36.743Z,62.70
2018-11-20T13:15:53.373Z,62.90
2018-11-20T13:18:20.213Z,62.60
2018-11-20T13:20:52.488Z,62.40
2018-11-20T13:23:13.622Z,62.40
2018-11-20T13:25:25.158Z,64.50
2018-11-20T13:27:46.003Z,64.10
2018-11-20T13:30:14.556Z,63.20
2018-11-20T13:32:48.008Z,63.40
2018-11-20T13:35:25.820Z,64.90
2018-11-20T13:37:48.663Z,63.60
2018-11-20T13:40:23.085Z,65.10
2018-11-20T13:42:46.406Z,65.00
2018-11-20T13:45:08.612Z,64.20
2018-11-20T13:47:34.008Z,63.10
2018-11-20T13:49:56.262Z,61.80
2018-11-20T13:52:28.206Z,63.50
2018-11-20T13:54:49.403Z,62.90
2018-11-20T13:57:27.105Z,61.90
2018-11-20T14:00:07.962Z,62.40
2018-11-20T14:02:29.322Z,63.70
2018-11-20T14:04:50.753Z,64.60
2018-11-20T14:07:26.447Z,65.00
2018-11-20T14:09:55.409Z,64.60
2018-11-20T14:12:21.375Z,64.10
2018-11-20T14:14:37.660Z,63.00
2018-11-20T14:16:59.636Z,64.30
2018-11-20T14:19:18.521Z,63.60
2018-11-20T14:21:39.016Z,63.90
2018-11-20T14:24:00.325Z,65.20
2018-11-20T14:26:23.200Z,65.20
2018-11-20T14:28:44.894Z,65.80
2018-11-20T14:31:16.811Z,66.00
2018-11-20T14:33:54.785Z,66.20
2018-11-20T14:36:17.512Z,66.40
2018-11-20T14:38:56.478Z,67.10
2018-11-20T14:41:33.080Z,68.10
2018-11-20T14:43:54.394Z,69.10
2018-11-20T14:46:26.163Z,68.90
2018-11-20T14:48:55.135Z,68.70
2018-11-20T14:51:10.189Z,68.90
2018-11-20T14:53:31.664Z,69.60
2018-11-20T14:55:54.453Z,71.10
2018-11-20T14:58:10.321Z,70.40
2018-11-20T15:00:48.834Z,70.30
2018-11-20T15:03:10.524Z,69.80
2018-11-20T15:05:36.193Z,70.50
2018-11-20T15:07:59.303Z,70.40
2018-11-20T15:10:23.846Z,70.50
2018-11-20T15:12:44.577Z,71.50
2018-11-20T15:15:05.985Z,72.40
2018-11-20T15:17:27.643Z,73.20
2018-11-20T15:20:02.375Z,73.30
2018-11-20T15:22:24.081Z,74.30
2018-11-20T15:24:46.921Z,74.60
2018-11-20T15:27:11.412Z,75.10
2018-11-20T15:29:49.073Z,75.10
2018-11-20T15:32:12.233Z,76.60
2018-11-20T15:34:33.424Z,77.20
2018-11-20T15:36:46.188Z,77.40
2018-11-20T15:39:08.646Z,78.30
2018-11-20T15:41:35.278Z,78.00
2018-11-20T15:44:05.141Z,78.40
2018-11-20T15:46:40.108Z,78.70
2018-11-20T15:49:21.806Z,79.50
2018-11-20T15:51:56.264Z,80.30
2018-11-20T15:54:27.740Z,80.90
2018-11-20T15:56:51.656Z,81.50
2018-11-20T15:59:29.376Z,82.20
2018-11-20T16:01:52.108Z,82.90
2018-11-20T16:04:17.490Z,83.70
2018-11-20T16:06:36.050Z,84.20
2018-11-20T16:09:02.803Z,84.40
2018-11-20T16:11:24.240Z,85.00
2018-11-20T16:13:46.124Z,84.90
2018-11-20T16:16:03.784Z,85.00
2018-11-20T16:18:21.707Z,85.80
2018-11-20T16:20:47.045Z,86.30
2018-11-20T16:22:59.807Z,86.50
2018-11-20T16:25:28.636Z,87.80
2018-11-20T16:28:00.328Z,88.30
2018-11-20T16:30:38.342Z,88.50
2018-11-20T16:33:01.085Z,89.10
2018-11-20T16:35:26.166Z,90.00
2018-11-20T16:38:03.801Z,90.10
2018-11-20T16:40:25.829Z,90.40
2018-11-20T16:42:49.529Z,90.60
2018-11-20T16:45:21.660Z,90.40
2018-11-20T16:47:43.392Z,91.40
2018-11-20T16:50:08.366Z,91.50
2018-11-20T16:52:29.797Z,91.90
2018-11-20T16:54:58.330Z,93.10
2018-11-20T16:57:19.762Z,92.50
2018-11-20T16:59:56.335Z,93.20
2018-11-20T17:02:18.003Z,93.70
2018-11-20T17:04:40.437Z,93.90
2018-11-20T17:07:00.613Z,94.30
2018-11-20T17:09:25.861Z,94.50
2018-11-20T17:11:42.623Z,94.30
2018-11-20T17:14:03.665Z,94.50
2018-11-20T17:16:26.538Z,94.90
2018-11-20T17:18:47.757Z,95.00
2018-11-20T17:21:16.421Z,94.60
2018-11-20T17:23:38.063Z,94.50
2018-11-20T17:25:59.300Z,94.60
2018-11-20T17:28:22.079Z,95.10
2018-11-20T17:30:53.812Z,95.00
2018-11-20T17:33:16.584Z,94.90
2018-11-20T17:35:39.332Z,95.10
2018-11-20T17:38:20.280Z,95.30
2018-11-20T17:40:41.769Z,95.60
2018-11-20T17:43:04.543Z,95.40
2018-11-20T17:45:26.814Z,95.50
2018-11-20T17:47:49.612Z,95.60
2018-11-20T17:50:13.248Z,95.40
2018-11-20T17:52:35.896Z,95.50
2018-11-20T17:54:58.611Z,95.60
2018-11-20T17:57:30.175Z,95.90
2018-11-20T17:59:54.024Z,95.70
2018-11-20T18:02:11.475Z,95.60
2018-11-20T18:04:33.026Z,95.60
2018-11-20T18:07:11.101Z,95.30
2018-11-20T18:09:32.435Z,95.30
2018-11-20T18:12:07.533Z,95.50
2018-11-20T18:14:28.940Z,95.20
2018-11-20T18:16:51.692Z,95.00
2018-11-20T18:19:13.132Z,95.20
2018-11-20T18:21:41.769Z,95.10
2018-11-20T18:24:23.253Z,95.20
2018-11-20T18:26:54.813Z,95.50
2018-11-20T18:29:27.818Z,95.70
2018-11-20T18:31:51.931Z,96.20
2018-11-20T18:34:13.203Z,96.20
2018-11-20T18:36:27.958Z,96.30
2018-11-20T18:38:51.686Z,96.10
2018-11-20T18:41:31.829Z,95.80
2018-11-20T18:43:54.597Z,95.80
2018-11-20T18:46:26.397Z,95.90
2018-11-20T18:48:49.211Z,96.10
2018-11-20T18:51:24.263Z,96.00
2018-11-20T18:53:47.089Z,96.00
2018-11-20T18:56:13.424Z,95.90
2018-11-20T18:58:36.939Z,96.40
2018-11-20T19:01:01.282Z,96.60
2018-11-20T19:03:23.997Z,97.00
2018-11-20T19:05:59.310Z,96.80
2018-11-20T19:08:25.566Z,96.50
2018-11-20T19:10:52.683Z,96.50
2018-11-20T19:13:19.964Z,96.70
2018-11-20T19:15:36.758Z,96.70
2018-11-20T19:18:18.016Z,96.80
2018-11-20T19:20:30.170Z,96.60
2018-11-20T19:22:51.632Z,96.60
2018-11-20T19:25:17.451Z,96.70
2018-11-20T19:27:46.160Z,96.70
2018-11-20T19:30:27.298Z,96.40
2018-11-20T19:33:05.199Z,96.40
2018-11-20T19:35:34.860Z,96.50
2018-11-20T19:38:00.547Z,96.60
2018-11-20T19:40:17.145Z,96.70
2018-11-20T19:42:42.498Z,96.80
2018-11-20T19:45:00.522Z,96.80
2018-11-20T19:47:12.820Z,96.60
2018-11-20T19:49:34.035Z,96.70
2018-11-20T19:52:06.173Z,96.50
2018-11-20T19:54:38.256Z,96.60
2018-11-20T19:57:10.486Z,96.60
2018-11-20T19:59:43.758Z,96.50
2018-11-20T20:02:04.373Z,96.60
2018-11-20T20:04:26.225Z,96.70
2018-11-20T20:06:49.591Z,96.90
2018-11-20T20:09:11.062Z,97.20
2018-11-20T20:11:33.611Z,97.20
2018-11-20T20:14:02.239Z,97.20
2018-11-20T20:16:26.650Z,96.60
2018-11-20T20:18:58.730Z,96.40
2018-11-20T20:21:20.313Z,96.60
2018-11-20T20:24:02.106Z,96.90
2018-11-20T20:26:18.074Z,96.60
2018-11-20T20:28:41.889Z,96.60
2018-11-20T20:31:11.656Z,96.70
2018-11-20T20:33:36.667Z,96.30
2018-11-20T20:36:14.500Z,96.20
2018-11-20T20:38:37.792Z,96.20
2018-11-20T20:40:59.017Z,96.30
2018-11-20T20:43:20.827Z,96.40
2018-11-20T20:45:34.450Z,97.00
2018-11-20T20:47:58.370Z,96.90
2018-11-20T20:50:28.002Z,97.00
2018-11-20T20:52:49.227Z,96.60
2018-11-20T20:55:12.473Z,96.60
2018-11-20T20:57:40.138Z,96.70
2018-11-20T21:00:05.818Z,97.30
2018-11-20T21:02:34.467Z,96.70
2018-11-20T21:04:57.914Z,96.80
2018-11-20T21:07:23.383Z,96.60
2018-11-20T21:09:44.769Z,97.00
2018-11-20T21:12:06.050Z,97.00
2018-11-20T21:14:28.805Z,97.20
2018-11-20T21:17:03.076Z,97.40
2018-11-20T21:19:44.592Z,97.50
2018-11-20T21:22:06.011Z,98.00
2018-11-20T21:24:27.183Z,97.80
2018-11-20T21:26:58.578Z,97.90
2018-11-20T21:29:23.828Z,97.90
2018-11-20T21:32:04.777Z,97.90
2018-11-20T21:34:33.247Z,98.10
2018-11-20T21:37:08.493Z,98.00
2018-11-20T21:39:43.163Z,97.80
2018-11-20T21:42:04.551Z,97.60
2018-11-20T21:44:28.810Z,97.70
2018-11-20T21:46:43.814Z,97.70
2018-11-20T21:49:05.132Z,97.50
2018-11-20T21:51:26.269Z,97.50
2018-11-20T21:53:57.896Z,97.60
2018-11-20T21:56:32.890Z,97.70
2018-11-20T21:58:55.114Z,97.40
2018-11-20T22:01:32.694Z,96.90
2018-11-20T22:03:54.866Z,96.90
2018-11-20T22:06:17.643Z,97.20
2018-11-20T22:08:40.359Z,97.10
2018-11-20T22:11:02.111Z,97.30
2018-11-20T22:13:23.434Z,97.50
2018-11-20T22:15:46.184Z,97.40
2018-11-20T22:18:07.579Z,97.50
2018-11-20T22:20:39.398Z,97.50
2018-11-20T22:23:00.924Z,97.60
2018-11-20T22:25:26.335Z,97.50
2018-11-20T22:27:54.698Z,97.50
2018-11-20T22:30:16.123Z,97.50
2018-11-20T22:32:38.853Z,97.90
2018-11-20T22:35:00.105Z,97.70
2018-11-20T22:37:20.122Z,97.50
2018-11-20T22:39:38.339Z,97.80
2018-11-20T22:42:13.283Z,98.00
2018-11-20T22:44:34.882Z,98.20
2018-11-20T22:47:00.371Z,98.20
2018-11-20T22:49:34.824Z,98.20
2018-11-20T22:52:04.055Z,98.10
2018-11-20T22:54:25.396Z,98.50
2018-11-20T22:56:45.008Z,98.60
2018-11-20T22:59:06.495Z,98.70
2018-11-20T23:01:35.329Z,98.90
2018-11-20T23:03:51.233Z,99.00
2018-11-20T23:06:12.857Z,99.00
2018-11-20T23:08:16.551Z,99.10
2018-11-20T23:10:21.662Z,99.30
2018-11-20T23:12:25.396Z,99.50
2018-11-20T23:14:29.331Z,99.70
2018-11-20T23:16:32.963Z,99.50
2018-11-20T23:18:36.598Z,99.50
2018-11-20T23:20:40.247Z,99.40
2018-11-20T23:22:43.977Z,99.40
2018-11-20T23:24:47.577Z,99.30
2018-11-20T23:26:51.223Z,99.50
2018-11-20T23:28:54.889Z,99.30
2018-11-20T23:30:58.518Z,99.30
2018-11-20T23:33:03.231Z,99.80
2018-11-20T23:35:07.412Z,99.90
2018-11-20T23:37:10.990Z,99.80
2018-11-20T23:39:14.691Z,99.90
2018-11-20T23:41:18.289Z,99.90
2018-11-20T23:43:21.950Z,99.90
2018-11-20T23:45:25.594Z,99.90
2018-11-20T23:47:29.237Z,99.90
2018-11-20T23:49:33.187Z,99.80
2018-11-20T23:51:36.831Z,99.60
2018-11-20T23:53:40.487Z,99.50
2018-11-20T23:55:44.122Z,99.40
2018-11-20T23:57:47.703Z,99.50
2018-11-20T23:59:51.422Z,99.80
